createdAt,value
2019-05-02T00:01:09.710Z,8.00
2019-05-02T00:02:09.947Z,7.97
2019-05-02T00:04:19.980Z,7.97
2019-05-02T00:05:14.335Z,7.86
2019-05-02T00:07:20.119Z,7.92
2019-05-02T00:08:19.240Z,7.95
2019-05-02T00:10:24.861Z,8.01
2019-05-02T00:11:23.643Z,7.95
2019-05-02T00:13:27.833Z,7.98
2019-05-02T00:14:28.064Z,8.11
2019-05-02T00:16:32.238Z,8.18
2019-05-02T00:17:32.474Z,8.22
2019-05-02T00:19:36.627Z,8.11
2019-05-02T00:20:36.864Z,8.04
2019-05-02T00:22:41.534Z,8.04
2019-05-02T00:23:41.768Z,8.08
2019-05-02T00:25:47.266Z,8.01
2019-05-02T00:26:46.156Z,8.05
2019-05-02T00:28:50.338Z,8.01
2019-05-02T00:29:53.777Z,8.02
2019-05-02T00:31:46.865Z,8.05
2019-05-02T00:32:44.412Z,8.15
2019-05-02T00:34:49.055Z,8.16
2019-05-02T00:35:49.294Z,8.18
2019-05-02T00:37:57.456Z,8.11
2019-05-02T00:38:53.704Z,8.00
2019-05-02T00:41:02.215Z,8.02
2019-05-02T00:41:58.101Z,7.93
2019-05-02T00:44:05.983Z,7.95
2019-05-02T00:45:02.519Z,7.80
2019-05-02T00:47:10.866Z,7.79
2019-05-02T00:48:06.938Z,7.89
2019-05-02T00:50:12.672Z,7.90
2019-05-02T00:51:11.821Z,7.98
2019-05-02T00:53:16.486Z,7.98
2019-05-02T00:54:19.128Z,7.95
2019-05-02T00:56:20.886Z,7.77
2019-05-02T00:57:21.784Z,7.74
2019-05-02T00:59:25.298Z,7.52
2019-05-02T01:00:25.540Z,7.43
2019-05-02T01:02:29.714Z,7.55
2019-05-02T01:03:31.992Z,7.52
2019-05-02T01:05:38.375Z,7.80
2019-05-02T01:06:34.832Z,7.80
2019-05-02T01:08:39.501Z,7.74
2019-05-02T01:09:42.231Z,7.74
2019-05-02T01:11:33.324Z,7.68
2019-05-02T01:12:33.547Z,7.82
2019-05-02T01:14:37.717Z,7.83
2019-05-02T01:15:38.960Z,7.72
2019-05-02T01:17:42.150Z,7.77
2019-05-02T01:18:42.582Z,7.77
2019-05-02T01:20:46.516Z,7.87
2019-05-02T01:21:46.751Z,7.85
2019-05-02T01:23:51.420Z,7.79
2019-05-02T01:24:51.655Z,7.72
2019-05-02T01:26:59.855Z,7.75
2019-05-02T01:27:56.538Z,7.42
2019-05-02T01:30:01.645Z,7.25
2019-05-02T01:31:00.955Z,7.16
2019-05-02T01:33:06.601Z,6.85
2019-05-02T01:34:05.372Z,6.79
2019-05-02T01:36:10.013Z,6.51
2019-05-02T01:37:12.413Z,6.81
2019-05-02T01:39:14.425Z,7.15
2019-05-02T01:40:17.741Z,6.87
2019-05-02T01:42:07.751Z,7.23
2019-05-02T01:43:07.988Z,6.67
2019-05-02T01:45:12.605Z,6.56
2019-05-02T01:46:12.398Z,6.64
2019-05-02T01:48:17.069Z,6.97
2019-05-02T01:49:21.720Z,6.97
2019-05-02T01:51:21.955Z,7.25
2019-05-02T01:52:23.786Z,7.42
2019-05-02T01:54:26.364Z,7.60
2019-05-02T01:55:26.600Z,7.60
2019-05-02T01:57:31.243Z,7.52
2019-05-02T01:58:31.472Z,7.48
2019-05-02T02:00:36.139Z,7.48
2019-05-02T02:01:36.377Z,7.40
2019-05-02T02:03:45.625Z,7.45
2019-05-02T02:04:41.294Z,7.43
2019-05-02T02:06:45.445Z,7.34
2019-05-02T02:07:45.681Z,7.28
2019-05-02T02:09:50.352Z,7.23
2019-05-02T02:10:56.636Z,7.21
2019-05-02T02:13:03.324Z,7.13
2019-05-02T02:13:54.976Z,7.07
2019-05-02T02:16:00.265Z,7.07
2019-05-02T02:16:59.385Z,7.13
2019-05-02T02:19:05.351Z,7.07
2019-05-02T02:20:04.288Z,7.16
2019-05-02T02:22:02.836Z,7.31
2019-05-02T02:22:58.093Z,7.23
2019-05-02T02:25:02.982Z,7.21
2019-05-02T02:26:06.791Z,7.17
2019-05-02T02:28:07.643Z,7.34
2019-05-02T02:29:09.330Z,7.32
2019-05-02T02:31:12.558Z,7.30
2019-05-02T02:32:12.794Z,7.42
2019-05-02T02:34:21.585Z,7.43
2019-05-02T02:35:17.217Z,6.87
2019-05-02T02:37:21.866Z,6.56
2019-05-02T02:38:26.822Z,6.49
2019-05-02T02:40:32.862Z,6.54
2019-05-02T02:41:26.519Z,6.61
2019-05-02T02:43:34.538Z,7.03
2019-05-02T02:44:33.612Z,7.10
2019-05-02T02:46:37.897Z,7.23
2019-05-02T02:47:35.945Z,7.23
2019-05-02T02:49:40.691Z,7.21
2019-05-02T02:50:42.976Z,7.31
2019-05-02T02:52:47.135Z,7.30
2019-05-02T02:53:45.682Z,7.34
2019-05-02T02:56:01.184Z,7.37
2019-05-02T02:56:50.036Z,7.27
2019-05-02T02:58:54.683Z,7.32
2019-05-02T03:00:06.821Z,7.30
2019-05-02T03:01:48.523Z,7.30
2019-05-02T03:02:50.043Z,7.42
2019-05-02T03:04:53.425Z,7.40
2019-05-02T03:05:58.599Z,7.31
2019-05-02T03:07:59.564Z,7.35
2019-05-02T03:08:58.559Z,7.37
2019-05-02T03:11:03.230Z,7.24
2019-05-02T03:12:04.551Z,7.16
2019-05-02T03:14:09.658Z,7.17
2019-05-02T03:15:08.357Z,7.03
2019-05-02T03:17:13.033Z,6.92
2019-05-02T03:18:13.272Z,6.88
2019-05-02T03:20:17.943Z,6.55
2019-05-02T03:21:20.940Z,6.51
2019-05-02T03:23:24.168Z,6.54
2019-05-02T03:24:22.582Z,6.54
2019-05-02T03:26:27.249Z,6.51
2019-05-02T03:27:29.706Z,6.51
2019-05-02T03:29:41.272Z,6.59
2019-05-02T03:30:37.553Z,6.62
2019-05-02T03:32:36.833Z,6.67
2019-05-02T03:33:51.586Z,6.73
2019-05-02T03:35:48.080Z,6.62
2019-05-02T03:36:41.698Z,6.58
2019-05-02T03:38:45.847Z,6.55
2019-05-02T03:39:49.408Z,6.54
2019-05-02T03:41:39.673Z,6.44
2019-05-02T03:42:44.558Z,6.28
2019-05-02T03:44:55.031Z,6.17
2019-05-02T03:45:44.794Z,6.17
2019-05-02T03:47:49.472Z,5.99
2019-05-02T03:48:49.709Z,6.01
2019-05-02T03:50:54.385Z,6.01
2019-05-02T03:51:56.033Z,6.03
2019-05-02T03:54:07.424Z,6.12
2019-05-02T03:54:59.014Z,6.37
2019-05-02T03:57:03.685Z,6.55
2019-05-02T03:58:13.106Z,6.48
2019-05-02T04:00:13.865Z,6.48
2019-05-02T04:01:08.808Z,6.44
2019-05-02T04:03:12.979Z,6.30
2019-05-02T04:04:14.091Z,6.34
2019-05-02T04:06:21.102Z,6.28
2019-05-02T04:07:18.127Z,6.36
2019-05-02T04:09:22.761Z,6.11
2019-05-02T04:10:22.994Z,6.22
2019-05-02T04:12:27.666Z,6.28
2019-05-02T04:13:30.189Z,6.15
2019-05-02T04:15:35.190Z,6.15
2019-05-02T04:16:32.780Z,6.11
2019-05-02T04:18:38.452Z,6.14
2019-05-02T04:19:38.700Z,6.12
2019-05-02T04:21:31.801Z,6.19
2019-05-02T04:22:32.070Z,6.15
2019-05-02T04:24:36.718Z,6.40
2019-05-02T04:25:36.957Z,6.33
2019-05-02T04:27:41.627Z,6.33
2019-05-02T04:28:45.620Z,6.44
2019-05-02T04:30:51.095Z,6.51
2019-05-02T04:31:46.243Z,6.49
2019-05-02T04:33:50.916Z,6.48
2019-05-02T04:34:55.769Z,6.52
2019-05-02T04:37:00.912Z,6.64
2019-05-02T04:37:59.164Z,6.73
2019-05-02T04:40:03.243Z,6.81
2019-05-02T04:41:00.946Z,6.92
2019-05-02T04:43:08.200Z,6.84
2019-05-02T04:44:08.882Z,6.84
2019-05-02T04:46:18.105Z,6.87
2019-05-02T04:47:17.317Z,6.87
2019-05-02T04:49:20.092Z,6.97
2019-05-02T04:50:18.779Z,7.05
2019-05-02T04:52:12.381Z,7.12
2019-05-02T04:53:09.998Z,7.06
2019-05-02T04:55:22.902Z,7.13
2019-05-02T04:56:14.882Z,6.94
2019-05-02T04:58:27.601Z,6.85
2019-05-02T04:59:22.756Z,6.84
2019-05-02T05:01:23.950Z,6.71
2019-05-02T05:02:34.677Z,6.77
2019-05-02T05:04:33.277Z,6.85
2019-05-02T05:05:31.269Z,6.85
2019-05-02T05:07:40.855Z,6.99
2019-05-02T05:08:35.001Z,7.02
2019-05-02T05:10:41.461Z,6.76
2019-05-02T05:11:39.894Z,6.71
2019-05-02T05:13:44.572Z,6.58
2019-05-02T05:14:44.798Z,6.59
2019-05-02T05:16:55.346Z,6.54
2019-05-02T05:17:50.686Z,6.66
2019-05-02T05:19:57.694Z,6.81
2019-05-02T05:20:57.750Z,6.84
2019-05-02T05:23:02.253Z,6.73
2019-05-02T05:24:02.489Z,6.84
2019-05-02T05:26:07.448Z,6.80
2019-05-02T05:27:08.280Z,6.94
2019-05-02T05:29:13.910Z,6.89
2019-05-02T05:30:15.614Z,6.94
2019-05-02T05:32:09.850Z,7.09
2019-05-02T05:33:09.962Z,7.13
2019-05-02T05:35:13.184Z,7.27
2019-05-02T05:36:13.025Z,7.28
2019-05-02T05:38:22.840Z,7.48
2019-05-02T05:39:18.932Z,7.50
2019-05-02T05:41:23.591Z,7.25
2019-05-02T05:42:30.156Z,7.15
2019-05-02T05:44:32.664Z,7.25
2019-05-02T05:45:29.730Z,7.40
2019-05-02T05:47:35.386Z,7.40
2019-05-02T05:48:37.200Z,7.68
2019-05-02T05:50:41.598Z,7.75
2019-05-02T05:51:41.535Z,7.75
2019-05-02T05:53:47.886Z,7.89
2019-05-02T05:54:47.392Z,7.95
2019-05-02T05:56:52.101Z,8.08
2019-05-02T05:57:59.489Z,8.02
2019-05-02T05:59:58.561Z,8.11
2019-05-02T06:00:58.478Z,8.16
2019-05-02T06:03:13.035Z,8.29
2019-05-02T06:04:03.142Z,8.30
2019-05-02T06:06:10.274Z,8.20
2019-05-02T06:07:09.058Z,8.23
2019-05-02T06:09:14.729Z,7.95
2019-05-02T06:10:14.969Z,8.08
2019-05-02T06:12:08.556Z,8.33
2019-05-02T06:13:11.120Z,8.25
2019-05-02T06:15:14.469Z,8.44
2019-05-02T06:16:15.399Z,8.33
2019-05-02T06:18:20.354Z,8.53
2019-05-02T06:19:20.591Z,8.66
2019-05-02T06:21:25.276Z,8.80
2019-05-02T06:22:25.725Z,8.89
2019-05-02T06:24:33.767Z,9.20
2019-05-02T06:25:34.382Z,9.11
2019-05-02T06:27:36.099Z,9.29
2019-05-02T06:28:41.472Z,9.33
2019-05-02T06:30:41.025Z,9.58
2019-05-02T06:31:43.054Z,9.58
2019-05-02T06:33:45.924Z,9.68
2019-05-02T06:34:47.540Z,9.86
2019-05-02T06:36:51.838Z,9.65
2019-05-02T06:37:52.113Z,9.02
2019-05-02T06:39:57.748Z,9.66
2019-05-02T06:40:57.985Z,9.74
2019-05-02T06:43:04.179Z,9.72
2019-05-02T06:44:02.885Z,9.66
2019-05-02T06:46:16.010Z,9.91
2019-05-02T06:47:07.804Z,9.87
2019-05-02T06:49:12.468Z,10.32
2019-05-02T06:50:12.710Z,10.29
2019-05-02T06:52:06.339Z,10.47
2019-05-02T06:53:09.634Z,10.30
2019-05-02T06:55:11.239Z,10.04
2019-05-02T06:56:12.687Z,10.11
2019-05-02T06:58:16.135Z,10.53
2019-05-02T06:59:18.606Z,10.68
2019-05-02T07:01:22.942Z,10.20
2019-05-02T07:02:22.283Z,10.32
2019-05-02T07:04:26.942Z,10.89
2019-05-02T07:05:27.424Z,11.42
2019-05-02T07:07:36.899Z,11.78
2019-05-02T07:08:32.297Z,11.69
2019-05-02T07:10:44.403Z,11.96
2019-05-02T07:11:39.044Z,11.95
2019-05-02T07:13:43.692Z,11.54
2019-05-02T07:14:41.919Z,11.83
2019-05-02T07:16:49.630Z,12.35
2019-05-02T07:17:46.838Z,12.85
2019-05-02T07:19:51.494Z,13.22
2019-05-02T07:20:51.732Z,13.87
2019-05-02T07:22:56.407Z,14.46
2019-05-02T07:23:56.647Z,14.78
2019-05-02T07:26:00.830Z,14.89
2019-05-02T07:27:02.536Z,14.78
2019-05-02T07:29:05.232Z,14.09
2019-05-02T07:30:05.474Z,13.91
2019-05-02T07:31:59.092Z,13.36
2019-05-02T07:33:01.104Z,12.96
2019-05-02T07:35:03.997Z,12.92
2019-05-02T07:36:04.235Z,12.89
2019-05-02T07:38:08.916Z,14.15
2019-05-02T07:39:09.157Z,14.60
2019-05-02T07:41:13.843Z,14.98
2019-05-02T07:42:14.082Z,15.01
2019-05-02T07:44:18.745Z,16.30
2019-05-02T07:45:18.985Z,16.61
2019-05-02T07:47:23.666Z,17.31
2019-05-02T07:48:23.908Z,17.74
2019-05-02T07:50:28.588Z,18.41
2019-05-02T07:51:28.834Z,17.89
2019-05-02T07:53:33.009Z,17.55
2019-05-02T07:54:33.251Z,17.89
2019-05-02T07:56:37.945Z,17.62
2019-05-02T07:57:38.186Z,17.89
2019-05-02T07:59:42.845Z,17.37
2019-05-02T08:00:43.089Z,17.75
2019-05-02T08:02:47.279Z,17.96
2019-05-02T08:03:47.523Z,18.20
2019-05-02T08:05:54.354Z,19.13
2019-05-02T08:06:51.957Z,19.37
2019-05-02T08:08:56.134Z,20.39
2019-05-02T08:09:56.379Z,20.17
2019-05-02T08:11:49.525Z,19.81
2019-05-02T08:12:49.778Z,19.77
2019-05-02T08:14:53.923Z,19.19
2019-05-02T08:15:54.167Z,19.65
2019-05-02T08:17:58.849Z,19.69
2019-05-02T08:19:01.286Z,20.05
2019-05-02T08:21:03.292Z,20.38
2019-05-02T08:22:04.171Z,20.57
2019-05-02T08:24:08.209Z,19.87
2019-05-02T08:25:10.412Z,20.48
2019-05-02T08:27:12.673Z,20.79
2019-05-02T08:28:15.842Z,21.32
2019-05-02T08:30:17.085Z,21.43
2019-05-02T08:31:19.031Z,21.19
2019-05-02T08:33:22.027Z,21.38
2019-05-02T08:34:22.283Z,21.01
2019-05-02T08:36:26.470Z,19.63
2019-05-02T08:37:26.729Z,20.01
2019-05-02T08:39:33.733Z,20.57
2019-05-02T08:40:31.137Z,20.87
2019-05-02T08:42:35.331Z,19.00
2019-05-02T08:43:35.581Z,19.87
2019-05-02T08:45:39.760Z,20.35
2019-05-02T08:46:40.008Z,20.41
2019-05-02T08:48:44.695Z,19.37
2019-05-02T08:49:49.278Z,19.40
2019-05-02T08:51:38.073Z,19.58
2019-05-02T08:52:42.217Z,20.18
2019-05-02T08:54:42.988Z,21.04
2019-05-02T08:55:45.342Z,21.24
2019-05-02T08:57:47.433Z,22.06
2019-05-02T08:58:49.824Z,21.72
2019-05-02T09:00:51.861Z,22.24
2019-05-02T09:01:52.107Z,21.79
2019-05-02T09:03:57.015Z,21.79
2019-05-02T09:04:58.812Z,22.22
2019-05-02T09:07:00.963Z,20.66
2019-05-02T09:08:01.021Z,21.19
2019-05-02T09:10:05.782Z,22.05
2019-05-02T09:11:05.453Z,21.94
2019-05-02T09:13:09.651Z,21.88
2019-05-02T09:14:09.899Z,21.84
2019-05-02T09:16:14.081Z,22.60
2019-05-02T09:17:16.540Z,22.80
2019-05-02T09:19:21.328Z,22.39
2019-05-02T09:20:20.956Z,22.22
2019-05-02T09:22:13.214Z,21.14
2019-05-02T09:23:12.442Z,21.42
2019-05-02T09:25:16.843Z,22.88
2019-05-02T09:26:17.093Z,22.79
2019-05-02T09:28:22.471Z,23.17
2019-05-02T09:29:22.218Z,23.10
2019-05-02T09:31:25.723Z,24.09
2019-05-02T09:32:26.624Z,23.87
2019-05-02T09:34:31.906Z,23.32
2019-05-02T09:35:30.422Z,23.38
2019-05-02T09:37:34.626Z,22.25
2019-05-02T09:38:34.874Z,22.80
2019-05-02T09:40:39.059Z,23.31
2019-05-02T09:41:39.308Z,22.91
2019-05-02T09:43:43.521Z,22.61
2019-05-02T09:44:47.952Z,22.58
2019-05-02T09:46:55.197Z,22.79
2019-05-02T09:48:01.321Z,22.95
2019-05-02T09:49:53.102Z,22.75
2019-05-02T09:50:52.887Z,22.33
2019-05-02T09:52:56.856Z,22.05
2019-05-02T09:54:01.917Z,21.86
2019-05-02T09:56:02.200Z,23.07
2019-05-02T09:57:02.806Z,22.98
2019-05-02T09:59:23.494Z,24.08
2019-05-02T10:00:05.992Z,24.12
2019-05-02T10:01:59.101Z,23.47
2019-05-02T10:02:59.359Z,23.68
2019-05-02T10:05:03.555Z,23.53
2019-05-02T10:06:03.803Z,22.85
2019-05-02T10:08:11.018Z,22.14
2019-05-02T10:09:08.265Z,21.71
2019-05-02T10:11:16.633Z,21.22
2019-05-02T10:12:12.707Z,21.84
2019-05-02T10:14:16.910Z,21.88
2019-05-02T10:15:17.186Z,21.62
2019-05-02T10:17:23.001Z,22.24
2019-05-02T10:18:28.277Z,22.09
2019-05-02T10:20:34.096Z,23.97
2019-05-02T10:21:26.046Z,23.38
2019-05-02T10:23:32.113Z,23.43
2019-05-02T10:24:32.214Z,23.80
2019-05-02T10:26:34.692Z,23.38
2019-05-02T10:27:38.415Z,22.90
2019-05-02T10:29:39.154Z,23.01
2019-05-02T10:30:39.402Z,23.05
2019-05-02T10:32:47.146Z,24.13
2019-05-02T10:33:43.839Z,24.24
2019-05-02T10:35:48.051Z,23.90
2019-05-02T10:36:51.930Z,23.80
2019-05-02T10:38:54.820Z,22.43
2019-05-02T10:39:55.747Z,22.46
2019-05-02T10:41:45.868Z,21.69
2019-05-02T10:42:46.119Z,21.07
2019-05-02T10:44:52.121Z,21.22
2019-05-02T10:45:52.923Z,21.37
2019-05-02T10:47:54.763Z,22.42
2019-05-02T10:48:55.016Z,22.46
2019-05-02T10:50:59.224Z,21.80
2019-05-02T10:51:59.470Z,21.61
2019-05-02T10:54:03.683Z,21.27
2019-05-02T10:55:03.925Z,20.59
2019-05-02T10:57:08.103Z,20.11
2019-05-02T10:58:08.354Z,20.03
2019-05-02T11:00:12.558Z,19.77
2019-05-02T11:01:12.808Z,19.99
2019-05-02T11:03:16.985Z,19.43
2019-05-02T11:04:17.232Z,19.65
2019-05-02T11:06:22.262Z,19.63
2019-05-02T11:07:26.051Z,19.71
2019-05-02T11:09:26.410Z,19.78
2019-05-02T11:10:26.129Z,19.76
2019-05-02T11:12:40.327Z,19.10
2019-05-02T11:13:32.185Z,19.11
2019-05-02T11:15:34.754Z,18.70
2019-05-02T11:16:35.001Z,18.70
2019-05-02T11:18:42.471Z,18.52
2019-05-02T11:19:39.424Z,18.08
2019-05-02T11:21:32.547Z,17.72
2019-05-02T11:22:32.791Z,17.28
2019-05-02T11:24:36.990Z,17.48
2019-05-02T11:25:37.238Z,17.58
2019-05-02T11:27:41.890Z,17.52
2019-05-02T11:28:41.668Z,17.51
2019-05-02T11:30:45.845Z,17.63
2019-05-02T11:31:46.090Z,17.55
2019-05-02T11:33:52.499Z,17.44
2019-05-02T11:34:52.363Z,17.08
2019-05-02T11:36:54.709Z,17.07
2019-05-02T11:37:54.954Z,17.19
2019-05-02T11:40:01.565Z,17.68
2019-05-02T11:40:59.390Z,17.75
2019-05-02T11:43:06.741Z,18.05
2019-05-02T11:44:03.803Z,18.21
2019-05-02T11:46:08.004Z,18.45
2019-05-02T11:47:08.249Z,18.57
2019-05-02T11:49:12.433Z,18.91
2019-05-02T11:50:12.666Z,19.22
2019-05-02T11:52:05.786Z,19.95
2019-05-02T11:53:09.249Z,20.23
2019-05-02T11:55:10.227Z,19.88
2019-05-02T11:56:11.648Z,19.62
2019-05-02T11:58:14.646Z,19.62
2019-05-02T11:59:15.070Z,19.63
2019-05-02T12:01:20.212Z,19.10
2019-05-02T12:02:19.337Z,19.44
2019-05-02T12:04:23.506Z,20.16
2019-05-02T12:05:26.637Z,20.95
2019-05-02T12:07:27.942Z,21.90
2019-05-02T12:08:28.192Z,21.80
2019-05-02T12:10:36.512Z,20.69
2019-05-02T12:11:32.639Z,21.12
2019-05-02T12:13:36.829Z,21.80
2019-05-02T12:14:37.114Z,21.74
2019-05-02T12:16:43.035Z,21.74
2019-05-02T12:17:41.953Z,22.43
2019-05-02T12:19:45.724Z,22.90
2019-05-02T12:20:45.969Z,23.33
2019-05-02T12:22:52.663Z,20.80
2019-05-02T12:23:52.558Z,19.95
2019-05-02T12:25:55.090Z,19.81
2019-05-02T12:26:55.336Z,19.59
2019-05-02T12:28:59.521Z,19.04
2019-05-02T12:29:59.772Z,18.95
2019-05-02T12:31:56.379Z,18.80
2019-05-02T12:32:53.204Z,18.72
2019-05-02T12:34:57.344Z,18.99
2019-05-02T12:35:57.590Z,19.22
2019-05-02T12:38:02.678Z,19.43
2019-05-02T12:39:02.582Z,19.46
2019-05-02T12:41:19.289Z,19.62
2019-05-02T12:42:06.708Z,20.52
2019-05-02T12:44:11.731Z,21.06
2019-05-02T12:45:12.295Z,21.01
2019-05-02T12:47:15.079Z,21.42
2019-05-02T12:48:15.326Z,21.79
2019-05-02T12:50:19.531Z,21.71
2019-05-02T12:51:19.778Z,22.27
2019-05-02T12:53:23.963Z,22.40
2019-05-02T12:54:24.203Z,22.20
2019-05-02T12:56:28.406Z,21.72
2019-05-02T12:57:28.655Z,21.77
2019-05-02T12:59:32.852Z,21.62
2019-05-02T13:00:33.100Z,21.77
2019-05-02T13:02:37.285Z,21.72
2019-05-02T13:03:37.540Z,21.80
2019-05-02T13:05:42.688Z,22.12
2019-05-02T13:06:42.471Z,22.09
2019-05-02T13:08:46.679Z,20.95
2019-05-02T13:09:46.929Z,21.21
2019-05-02T13:11:42.293Z,22.22
2019-05-02T13:12:41.847Z,22.79
2019-05-02T13:14:44.490Z,22.07
2019-05-02T13:15:44.739Z,22.37
2019-05-02T13:17:49.135Z,23.02
2019-05-02T13:18:49.170Z,23.65
2019-05-02T13:20:53.375Z,22.61
2019-05-02T13:21:58.234Z,23.12
2019-05-02T13:23:57.834Z,23.78
2019-05-02T13:24:58.081Z,23.91
2019-05-02T13:27:04.442Z,24.52
2019-05-02T13:28:03.010Z,24.24
2019-05-02T13:30:07.216Z,24.02
2019-05-02T13:31:07.465Z,23.69
2019-05-02T13:33:12.229Z,22.76
2019-05-02T13:34:14.743Z,22.98
2019-05-02T13:36:16.105Z,23.35
2019-05-02T13:37:16.355Z,23.07
2019-05-02T13:39:22.016Z,22.94
2019-05-02T13:40:22.464Z,23.16
2019-05-02T13:42:13.936Z,22.80
2019-05-02T13:43:14.192Z,22.73
2019-05-02T13:45:18.397Z,22.47
2019-05-02T13:46:18.645Z,22.55
2019-05-02T13:48:22.825Z,23.55
2019-05-02T13:49:23.075Z,23.54
2019-05-02T13:51:27.280Z,23.04
2019-05-02T13:52:27.526Z,22.51
2019-05-02T13:54:32.941Z,21.90
2019-05-02T13:55:31.966Z,21.54
2019-05-02T13:57:41.773Z,21.80
2019-05-02T13:58:36.415Z,21.75
2019-05-02T14:00:42.349Z,22.03
2019-05-02T14:01:42.372Z,22.45
2019-05-02T14:03:45.052Z,23.07
2019-05-02T14:04:45.302Z,22.92
2019-05-02T14:06:49.498Z,21.86
2019-05-02T14:07:53.990Z,21.82
2019-05-02T14:09:58.099Z,22.22
2019-05-02T14:10:55.187Z,22.22
2019-05-02T14:12:59.885Z,22.36
2019-05-02T14:14:01.851Z,22.22
2019-05-02T14:16:04.345Z,22.46
2019-05-02T14:17:04.592Z,22.83
2019-05-02T14:19:08.770Z,22.52
2019-05-02T14:20:11.608Z,22.60
2019-05-02T14:22:02.962Z,22.65
2019-05-02T14:23:02.440Z,22.43
2019-05-02T14:25:06.584Z,22.30
2019-05-02T14:26:06.831Z,22.17
2019-05-02T14:28:12.864Z,22.51
2019-05-02T14:29:12.595Z,21.56
2019-05-02T14:31:15.494Z,22.30
2019-05-02T14:32:23.359Z,22.49
2019-05-02T14:34:21.649Z,21.72
2019-05-02T14:35:23.995Z,21.72
2019-05-02T14:37:24.883Z,21.69
2019-05-02T14:38:25.131Z,21.54
2019-05-02T14:40:29.308Z,21.82
2019-05-02T14:41:35.979Z,21.67
2019-05-02T14:43:37.986Z,22.37
2019-05-02T14:45:01.329Z,22.45
2019-05-02T14:46:39.625Z,22.14
2019-05-02T14:47:38.442Z,21.62
2019-05-02T14:49:42.992Z,21.65
2019-05-02T14:50:45.694Z,22.14
2019-05-02T14:52:47.060Z,22.15
2019-05-02T14:53:47.308Z,22.10
2019-05-02T14:55:53.171Z,21.99
2019-05-02T14:56:52.309Z,22.43
2019-05-02T14:58:55.933Z,22.03
2019-05-02T14:59:59.677Z,22.15
2019-05-02T15:01:49.320Z,22.22
2019-05-02T15:02:51.458Z,22.09
2019-05-02T15:04:53.743Z,21.99
2019-05-02T15:05:54.002Z,21.86
2019-05-02T15:08:02.605Z,21.77
2019-05-02T15:08:58.435Z,21.98
2019-05-02T15:11:03.418Z,21.96
2019-05-02T15:12:08.231Z,22.17
2019-05-02T15:14:11.426Z,21.13
2019-05-02T15:15:07.312Z,20.97
2019-05-02T15:17:12.103Z,21.16
2019-05-02T15:18:15.926Z,20.91
2019-05-02T15:20:15.940Z,21.01
2019-05-02T15:21:16.442Z,20.91
2019-05-02T15:23:20.384Z,20.42
2019-05-02T15:24:22.945Z,19.91
2019-05-02T15:26:26.448Z,19.25
2019-05-02T15:27:25.133Z,19.44
2019-05-02T15:29:29.382Z,19.80
2019-05-02T15:30:29.620Z,20.23
2019-05-02T15:32:37.246Z,20.18
2019-05-02T15:33:34.074Z,20.26
2019-05-02T15:35:38.247Z,19.23
2019-05-02T15:36:42.259Z,18.87
2019-05-02T15:38:47.351Z,18.70
2019-05-02T15:41:39.827Z,18.69
2019-05-02T15:42:38.807Z,18.80
2019-05-02T15:44:42.994Z,19.23
2019-05-02T15:45:44.118Z,19.63
2019-05-02T15:47:47.435Z,19.62
2019-05-02T15:48:47.677Z,19.54
2019-05-02T15:50:54.585Z,18.88
2019-05-02T15:51:52.404Z,18.48
2019-05-02T15:54:05.004Z,18.21
2019-05-02T15:54:59.550Z,18.21
2019-05-02T15:57:03.188Z,18.39
2019-05-02T15:58:02.496Z,18.62
2019-05-02T16:00:05.123Z,19.23
2019-05-02T16:01:05.370Z,19.28
2019-05-02T16:03:09.566Z,18.81
2019-05-02T16:04:09.813Z,18.78
2019-05-02T16:06:16.385Z,19.07
2019-05-02T16:07:15.228Z,19.04
2019-05-02T16:09:19.417Z,19.46
2019-05-02T16:10:21.600Z,19.47
2019-05-02T16:12:12.754Z,19.29
2019-05-02T16:13:17.002Z,19.25
2019-05-02T16:15:24.825Z,18.90
2019-05-02T16:16:17.432Z,18.57
2019-05-02T16:18:21.660Z,18.29
2019-05-02T16:19:28.566Z,18.18
2019-05-02T16:21:29.056Z,18.21
2019-05-02T16:22:26.299Z,18.50
2019-05-02T16:24:32.148Z,18.63
2019-05-02T16:25:31.991Z,18.75
2019-05-02T16:27:34.895Z,18.44
2019-05-02T16:28:36.926Z,18.44
2019-05-02T16:30:44.166Z,18.32
2019-05-02T16:31:39.568Z,18.23
2019-05-02T16:33:43.764Z,18.35
2019-05-02T16:34:43.995Z,17.99
2019-05-02T16:36:48.186Z,17.79
2019-05-02T16:37:54.438Z,17.72
2019-05-02T16:39:52.623Z,17.52
2019-05-02T16:40:52.871Z,17.49
2019-05-02T16:42:57.035Z,17.26
2019-05-02T16:43:57.278Z,17.26
2019-05-02T16:46:01.788Z,17.36
2019-05-02T16:47:02.211Z,17.33
2019-05-02T16:49:08.790Z,17.26
2019-05-02T16:50:06.117Z,17.38
2019-05-02T16:52:05.021Z,17.54
2019-05-02T16:52:59.469Z,17.68
2019-05-02T16:55:03.661Z,17.86
2019-05-02T16:56:07.024Z,17.81
2019-05-02T16:58:08.072Z,18.15
2019-05-02T16:59:08.314Z,18.32
2019-05-02T17:01:14.885Z,18.32
2019-05-02T17:02:12.740Z,18.32
2019-05-02T17:04:16.911Z,18.15
2019-05-02T17:05:17.147Z,18.12
2019-05-02T17:07:22.110Z,17.90
2019-05-02T17:08:22.529Z,17.87
2019-05-02T17:10:25.768Z,17.82
2019-05-02T17:11:27.874Z,17.89
2019-05-02T17:13:34.204Z,17.77
2019-05-02T17:14:31.746Z,17.87
2019-05-02T17:16:34.613Z,17.99
2019-05-02T17:17:34.987Z,18.17
2019-05-02T17:19:39.024Z,18.11
2019-05-02T17:20:39.267Z,18.08
2019-05-02T17:22:44.477Z,18.12
2019-05-02T17:23:46.818Z,18.20
2019-05-02T17:25:47.901Z,18.30
2019-05-02T17:26:48.141Z,18.50
2019-05-02T17:28:52.336Z,18.36
2019-05-02T17:29:59.326Z,18.50
2019-05-02T17:31:49.916Z,18.52
2019-05-02T17:32:45.935Z,18.23
2019-05-02T17:34:50.104Z,18.08
2019-05-02T17:35:52.296Z,17.74
2019-05-02T17:37:55.035Z,17.38
2019-05-02T17:38:59.264Z,17.44
2019-05-02T17:41:04.915Z,17.03
2019-05-02T17:42:02.605Z,16.82
2019-05-02T17:44:04.886Z,16.53
2019-05-02T17:45:05.142Z,16.49
2019-05-02T17:47:09.689Z,16.34
2019-05-02T17:48:15.915Z,16.30
2019-05-02T17:50:18.038Z,16.02
2019-05-02T17:51:13.950Z,15.92
2019-05-02T17:53:18.124Z,15.86
2019-05-02T17:54:22.790Z,15.84
2019-05-02T17:56:23.275Z,15.72
2019-05-02T17:57:22.826Z,15.65
2019-05-02T17:59:28.354Z,15.51
2019-05-02T18:00:27.232Z,15.51
2019-05-02T18:02:31.747Z,15.39
2019-05-02T18:03:34.987Z,15.31
2019-05-02T18:05:35.891Z,15.16
2019-05-02T18:06:36.063Z,15.17
2019-05-02T18:08:41.725Z,15.07
2019-05-02T18:09:41.881Z,15.03
2019-05-02T18:11:36.569Z,15.02
2019-05-02T18:12:33.845Z,14.88
2019-05-02T18:14:37.999Z,14.77
2019-05-02T18:15:38.247Z,14.80
2019-05-02T18:17:42.797Z,14.75
2019-05-02T18:18:45.678Z,14.75
2019-05-02T18:20:46.813Z,14.68
2019-05-02T18:21:47.054Z,14.68
2019-05-02T18:23:52.039Z,14.52
2019-05-02T18:24:52.651Z,14.52
2019-05-02T18:26:55.673Z,14.42
2019-05-02T18:27:55.895Z,14.50
2019-05-02T18:30:02.121Z,14.35
2019-05-02T18:31:02.752Z,14.42
2019-05-02T18:33:07.189Z,14.29
2019-05-02T18:34:04.714Z,14.29
2019-05-02T18:36:08.873Z,14.21
2019-05-02T18:37:09.115Z,14.14
2019-05-02T18:39:13.293Z,14.12
2019-05-02T18:40:13.532Z,14.10
2019-05-02T18:42:06.619Z,14.14
2019-05-02T18:43:06.858Z,14.03
2019-05-02T18:45:12.660Z,14.00
2019-05-02T18:46:12.749Z,13.95
2019-05-02T18:48:15.461Z,13.62
2019-05-02T18:49:17.111Z,13.67
2019-05-02T18:51:21.747Z,13.64
2019-05-02T18:52:20.099Z,13.63
2019-05-02T18:54:24.282Z,13.60
2019-05-02T18:55:25.864Z,13.59
2019-05-02T18:57:29.631Z,13.52
2019-05-02T18:58:28.920Z,13.54
2019-05-02T19:00:37.622Z,13.42
2019-05-02T19:01:33.332Z,13.32
2019-05-02T19:03:37.515Z,13.29
2019-05-02T19:04:39.735Z,13.44
2019-05-02T19:06:42.098Z,13.39
2019-05-02T19:07:42.836Z,13.38
2019-05-02T19:09:51.059Z,13.28
2019-05-02T19:11:04.098Z,13.39
2019-05-02T19:12:50.865Z,13.39
2019-05-02T19:13:52.656Z,13.29
2019-05-02T19:15:55.295Z,13.36
2019-05-02T19:16:58.098Z,13.32
2019-05-02T19:19:01.578Z,13.28
2019-05-02T19:19:59.935Z,13.33
2019-05-02T19:21:53.017Z,13.32
2019-05-02T19:22:56.864Z,13.32
2019-05-02T19:24:57.431Z,13.30
2019-05-02T19:26:03.758Z,13.45
2019-05-02T19:28:02.842Z,13.48
2019-05-02T19:29:02.566Z,13.38
2019-05-02T19:31:07.073Z,13.41
2019-05-02T19:32:06.497Z,13.36
2019-05-02T19:34:11.957Z,13.36
2019-05-02T19:35:10.914Z,13.36
2019-05-02T19:37:15.134Z,13.26
2019-05-02T19:38:17.095Z,13.26
2019-05-02T19:40:20.088Z,13.22
2019-05-02T19:41:19.747Z,13.25
2019-05-02T19:43:23.903Z,13.26
2019-05-02T19:44:29.239Z,13.29
2019-05-02T19:46:34.564Z,13.19
2019-05-02T19:47:28.567Z,13.17
2019-05-02T19:49:33.019Z,13.12
2019-05-02T19:50:39.244Z,13.28
2019-05-02T19:52:40.438Z,13.23
2019-05-02T19:53:37.396Z,13.20
2019-05-02T19:55:42.979Z,13.23
2019-05-02T19:56:46.196Z,13.22
2019-05-02T19:58:46.782Z,13.26